Etusivu
METAR-TAF:

METAR-TAF

Lentoasemat :

Deer Park Airport

Deer Park, Washington, Yhdysvallat

Leveyspiiri: 47-58-27N, Pituuspiiri: 117-25-42W, korkeus merenpinnasta: 672 m

Tämänhetkinen sää

Tämä raportti tehtiin 36 minuuttia sitten, kello 13.53 UTC
tyyntä
Lämpötila 5°C
Kosteus 93%
Ilmanpaine 1012 hPa
Näkyvyys: 16.1 km
Muutamia pilviä 12000 ft:n korkeudessa

METAR: KDEW 251353Z AUTO 00000KT 10SM FEW120 05/04 A2989 RMK AO2 SLP122 T00500039

Aika: 07:29 (14:29 UTC)


TAF: puuttuu

Säähavainnot ja -ennusteet yli 4000 lentoasemalta (METAR- ja TAF-raportit).

Käytössä olevat sääasemat on merkitty karttaan keltaisilla ja punaisilla pisteillä.

Aseta hiiri pisteen päälle nähdäksesi sääaseman nimen.

Klikkaa sitten nähdäksesi säähavainnot ja -ennusteet.

Kartan vaihtaminen: klikkaa mustalla rastilla varustettuja vihreitä pisteitä, niin voit zoomata sisään; viivalla varustettua vihreää pistettä, niin voit zoomata ulos tai vihreitä nuolia, niin pääset viereisille kartoille.


METAR-TAF: